createdAt,value
2017-10-08T00:00:47.357Z,3.90
2017-10-08T00:03:14.966Z,5.95
2017-10-08T00:05:42.503Z,7.22
2017-10-08T00:08:10.872Z,3.58
2017-10-08T00:10:39.243Z,8.90
2017-10-08T00:13:07.626Z,4.15
2017-10-08T00:15:35.958Z,7.53
2017-10-08T00:18:03.602Z,6.28
2017-10-08T00:20:31.188Z,4.37
2017-10-08T00:22:58.838Z,4.20
2017-10-08T00:25:26.437Z,6.12
2017-10-08T00:27:54.078Z,5.75
2017-10-08T00:30:21.680Z,7.55
2017-10-08T00:32:50.047Z,8.52
2017-10-08T00:35:18.490Z,5.12
2017-10-08T00:37:46.091Z,4.03
2017-10-08T00:40:13.707Z,4.37
2017-10-08T00:42:41.271Z,5.20
2017-10-08T00:45:08.884Z,8.20
2017-10-08T00:47:37.222Z,3.58
2017-10-08T00:50:04.830Z,3.20
2017-10-08T00:52:32.460Z,2.60
2017-10-08T00:55:00.138Z,4.28
2017-10-08T00:57:27.769Z,2.50
2017-10-08T00:59:55.398Z,2.85
2017-10-08T01:02:23.022Z,2.45
2017-10-08T01:04:50.639Z,8.25
2017-10-08T01:07:18.291Z,2.25
2017-10-08T01:09:45.859Z,3.12
2017-10-08T01:12:13.474Z,2.85
2017-10-08T01:14:41.800Z,2.40
2017-10-08T01:17:09.411Z,2.20
2017-10-08T01:19:37.030Z,1.80
2017-10-08T01:22:04.651Z,16.17
2017-10-08T01:24:32.282Z,1.92
2017-10-08T01:26:59.873Z,2.95
2017-10-08T01:29:27.453Z,2.30
2017-10-08T01:31:55.034Z,2.72
2017-10-08T01:34:22.652Z,2.65
2017-10-08T01:36:50.327Z,1.90
2017-10-08T01:39:17.907Z,3.90
2017-10-08T01:41:45.526Z,2.75
2017-10-08T01:44:13.133Z,2.15
2017-10-08T01:46:40.702Z,1.70
2017-10-08T01:49:08.301Z,1.70
2017-10-08T01:51:36.666Z,1.48
2017-10-08T01:54:04.285Z,4.45
2017-10-08T01:56:31.868Z,2.15
2017-10-08T01:58:59.474Z,1.50
2017-10-08T02:01:27.087Z,1.75
2017-10-08T02:03:54.711Z,1.98
2017-10-08T02:06:22.321Z,1.67
2017-10-08T02:08:49.926Z,1.45
2017-10-08T02:11:17.485Z,1.42
2017-10-08T02:13:45.099Z,1.50
2017-10-08T02:16:12.706Z,1.30
2017-10-08T02:18:40.311Z,1.30
2017-10-08T02:21:07.877Z,1.58
2017-10-08T02:23:35.476Z,3.60
2017-10-08T02:26:03.842Z,1.30
2017-10-08T02:28:32.223Z,1.50
2017-10-08T02:31:00.674Z,2.37
2017-10-08T02:33:28.240Z,1.30
2017-10-08T02:35:55.844Z,1.37
2017-10-08T02:38:23.497Z,2.47
2017-10-08T02:40:51.067Z,1.40
2017-10-08T02:43:18.633Z,3.20
2017-10-08T02:45:46.238Z,1.52
2017-10-08T02:48:13.842Z,1.92
2017-10-08T02:50:41.408Z,4.50
2017-10-08T02:53:09.006Z,1.30
2017-10-08T02:55:36.650Z,1.27
2017-10-08T02:58:04.269Z,6.20
2017-10-08T03:00:31.879Z,1.35
2017-10-08T03:02:59.498Z,1.70
2017-10-08T03:05:27.112Z,1.33
2017-10-08T03:07:54.722Z,1.40
2017-10-08T03:10:22.324Z,1.23
2017-10-08T03:12:49.891Z,1.00
2017-10-08T03:15:17.498Z,1.55
2017-10-08T03:17:45.104Z,1.52
2017-10-08T03:20:13.035Z,1.20
2017-10-08T03:22:40.688Z,1.20
2017-10-08T03:25:08.296Z,1.62
2017-10-08T03:27:35.900Z,1.02
2017-10-08T03:30:03.507Z,1.40
2017-10-08T03:32:31.885Z,1.25
2017-10-08T03:34:59.457Z,1.30
2017-10-08T03:37:27.067Z,1.08
2017-10-08T03:39:54.639Z,1.00
2017-10-08T03:42:22.966Z,1.25
2017-10-08T03:44:50.574Z,0.90
2017-10-08T03:47:18.951Z,1.15
2017-10-08T03:49:46.562Z,2.37
2017-10-08T03:52:14.122Z,1.20
2017-10-08T03:54:41.693Z,1.50
2017-10-08T03:57:09.299Z,0.95
2017-10-08T03:59:37.724Z,1.00
2017-10-08T04:02:05.331Z,0.70
2017-10-08T04:04:32.945Z,0.70
2017-10-08T04:07:00.546Z,0.80
2017-10-08T04:09:28.156Z,0.70
2017-10-08T04:11:55.743Z,1.33
2017-10-08T04:14:23.311Z,0.90
2017-10-08T04:16:50.875Z,0.90
2017-10-08T04:19:18.482Z,0.90
2017-10-08T04:21:46.094Z,1.00
2017-10-08T04:24:13.699Z,1.30
2017-10-08T04:26:41.300Z,1.60
2017-10-08T04:29:08.905Z,2.80
2017-10-08T04:31:36.502Z,1.98
2017-10-08T04:34:04.114Z,2.85
2017-10-08T04:36:31.682Z,1.73
2017-10-08T04:39:00.042Z,7.57
2017-10-08T04:41:27.570Z,7.20
2017-10-08T04:43:55.170Z,2.80
2017-10-08T04:46:22.773Z,3.20
2017-10-08T04:48:50.374Z,4.65
2017-10-08T04:51:17.934Z,11.07
2017-10-08T04:53:45.494Z,2.72
2017-10-08T04:56:13.097Z,2.87
2017-10-08T04:58:40.707Z,3.47
2017-10-08T05:01:08.279Z,2.40
2017-10-08T05:03:35.884Z,2.90
2017-10-08T05:06:03.495Z,3.08
2017-10-08T05:08:31.135Z,3.00
2017-10-08T05:10:58.765Z,2.33
2017-10-08T05:13:26.368Z,2.72
2017-10-08T05:15:53.997Z,2.15
2017-10-08T05:18:21.595Z,2.00
2017-10-08T05:20:49.209Z,2.60
2017-10-08T05:23:16.810Z,2.40
2017-10-08T05:25:44.414Z,2.92
2017-10-08T05:28:12.023Z,2.35
2017-10-08T05:30:39.627Z,3.00
2017-10-08T05:33:07.230Z,2.70
2017-10-08T05:35:34.831Z,3.15
2017-10-08T05:38:02.469Z,2.90
2017-10-08T05:40:30.070Z,2.90
2017-10-08T05:42:57.633Z,3.03
2017-10-08T05:45:26.013Z,3.87
2017-10-08T05:47:54.430Z,3.65
2017-10-08T05:50:22.110Z,3.45
2017-10-08T05:52:49.670Z,3.15
2017-10-08T05:55:17.266Z,3.58
2017-10-08T05:57:44.802Z,3.12
2017-10-08T06:00:12.405Z,5.30
2017-10-08T06:02:40.511Z,3.30
2017-10-08T06:05:08.123Z,4.15
2017-10-08T06:07:35.723Z,3.15
2017-10-08T06:10:03.645Z,3.47
2017-10-08T06:12:31.251Z,2.50
2017-10-08T06:14:59.779Z,2.72
2017-10-08T06:17:27.380Z,3.30
2017-10-08T06:19:54.978Z,2.72
2017-10-08T06:22:22.541Z,1.80
2017-10-08T06:24:50.102Z,1.67
2017-10-08T06:27:17.714Z,2.08
2017-10-08T06:29:46.043Z,2.85
2017-10-08T06:32:13.605Z,1.92
2017-10-08T06:34:41.260Z,1.55
2017-10-08T06:37:08.860Z,1.62
2017-10-08T06:39:36.462Z,2.03
2017-10-08T06:42:04.067Z,1.20
2017-10-08T06:44:31.633Z,3.65
2017-10-08T06:46:59.238Z,1.20
2017-10-08T06:49:26.852Z,1.50
2017-10-08T06:51:54.449Z,3.50
2017-10-08T06:54:22.821Z,4.62
2017-10-08T06:56:51.186Z,1.95
2017-10-08T06:59:19.557Z,1.90
2017-10-08T07:01:47.155Z,2.10
2017-10-08T07:04:14.757Z,2.87
2017-10-08T07:06:42.364Z,3.95
2017-10-08T07:09:09.887Z,2.20
2017-10-08T07:11:37.526Z,2.62
2017-10-08T07:14:05.134Z,3.30
2017-10-08T07:16:33.522Z,3.20
2017-10-08T07:19:01.170Z,3.95
2017-10-08T07:21:28.799Z,5.70
2017-10-08T07:23:56.404Z,4.97
2017-10-08T07:26:23.980Z,3.78
2017-10-08T07:28:51.722Z,8.20
2017-10-08T07:31:19.410Z,2.95
2017-10-08T07:33:47.102Z,3.65
2017-10-08T07:36:14.706Z,3.55
2017-10-08T07:38:42.277Z,4.62
2017-10-08T07:41:10.634Z,8.23
2017-10-08T07:43:38.250Z,10.18
2017-10-08T07:46:05.862Z,7.28
2017-10-08T07:48:34.260Z,9.20
2017-10-08T07:51:07.503Z,19.92
2017-10-08T07:53:35.138Z,6.90
2017-10-08T07:56:08.772Z,8.02
2017-10-08T07:58:36.383Z,9.38
2017-10-08T08:01:06.713Z,5.18
2017-10-08T08:03:34.871Z,5.28
2017-10-08T08:06:03.426Z,10.27
2017-10-08T08:08:31.884Z,2.00
2017-10-08T08:11:00.410Z,8.00
2017-10-08T08:13:30.776Z,2.08
2017-10-08T08:15:58.350Z,4.05
2017-10-08T08:18:26.084Z,4.90
2017-10-08T08:20:53.712Z,3.17
2017-10-08T08:23:21.311Z,5.53
2017-10-08T08:28:46.960Z,7.37
2017-10-08T08:31:15.455Z,3.25
2017-10-08T08:36:42.532Z,4.62
2017-10-08T08:39:10.108Z,1.80
2017-10-08T08:41:37.717Z,5.78
2017-10-08T08:44:05.280Z,2.53
2017-10-08T08:46:33.593Z,4.30
2017-10-08T08:49:01.189Z,2.00
2017-10-08T08:51:28.840Z,7.37
2017-10-08T08:53:56.442Z,6.30
2017-10-08T08:56:24.055Z,2.47
2017-10-08T08:58:51.624Z,6.05
2017-10-08T09:01:19.226Z,4.70
2017-10-08T09:03:46.843Z,8.20
2017-10-08T09:06:14.568Z,7.55
2017-10-08T09:08:42.145Z,2.53
2017-10-08T09:11:09.722Z,3.53
2017-10-08T09:13:37.379Z,5.57
2017-10-08T09:16:04.951Z,2.33
2017-10-08T09:18:32.567Z,4.60
2017-10-08T09:21:00.143Z,8.30
2017-10-08T09:23:27.804Z,17.50
2017-10-08T09:25:55.423Z,41.00
2017-10-08T09:28:23.034Z,3.97
2017-10-08T09:30:50.639Z,1.70
2017-10-08T09:33:19.017Z,4.12
2017-10-08T09:35:47.402Z,5.40
2017-10-08T09:38:15.008Z,3.35
2017-10-08T09:40:42.579Z,1.70
2017-10-08T09:43:10.195Z,1.92
2017-10-08T09:45:37.799Z,2.30
2017-10-08T09:48:05.411Z,1.58
2017-10-08T09:50:33.018Z,3.50
2017-10-08T09:53:00.674Z,6.97
2017-10-08T09:55:28.319Z,6.60
2017-10-08T09:57:56.023Z,1.90
2017-10-08T10:00:23.649Z,2.30
2017-10-08T10:02:51.310Z,2.58
2017-10-08T10:05:18.941Z,3.17
2017-10-08T10:07:46.869Z,1.92
2017-10-08T10:10:14.499Z,4.68
2017-10-08T10:12:42.881Z,1.48
2017-10-08T10:15:10.510Z,1.73
2017-10-08T10:17:38.241Z,1.50
2017-10-08T10:20:05.892Z,4.22
2017-10-08T10:22:33.576Z,6.05
2017-10-08T10:25:01.170Z,4.57
2017-10-08T10:27:28.738Z,3.53
2017-10-08T10:30:02.066Z,1.60
2017-10-08T10:32:29.708Z,0.80
2017-10-08T10:34:57.332Z,0.70
2017-10-08T10:37:24.969Z,0.75
2017-10-08T10:39:52.540Z,1.17
2017-10-08T10:42:20.166Z,6.78
2017-10-08T10:44:47.783Z,4.55
2017-10-08T10:47:15.402Z,1.27
2017-10-08T10:49:43.067Z,1.27
2017-10-08T10:52:10.850Z,1.20
2017-10-08T10:54:39.249Z,0.90
2017-10-08T10:57:06.920Z,2.05
2017-10-08T10:59:34.559Z,2.80
2017-10-08T11:02:02.907Z,7.28
2017-10-08T11:04:30.544Z,1.65
2017-10-08T11:06:58.158Z,1.33
2017-10-08T11:09:26.536Z,1.40
2017-10-08T11:11:55.004Z,1.35
2017-10-08T11:14:22.746Z,1.62
2017-10-08T11:16:50.319Z,3.33
2017-10-08T11:19:21.181Z,1.75
2017-10-08T11:21:49.521Z,1.00
2017-10-08T11:24:17.134Z,1.33
2017-10-08T11:26:44.704Z,1.33
2017-10-08T11:29:12.274Z,1.00
2017-10-08T11:31:39.898Z,1.98
2017-10-08T11:34:07.509Z,2.60
2017-10-08T11:36:35.122Z,1.95
2017-10-08T11:39:02.744Z,1.37
2017-10-08T11:41:30.362Z,1.15
2017-10-08T11:43:57.993Z,3.30
2017-10-08T11:46:25.570Z,1.20
2017-10-08T11:48:53.210Z,1.17
2017-10-08T11:51:20.882Z,4.55
2017-10-08T11:53:49.298Z,8.02
2017-10-08T11:56:16.926Z,1.55
2017-10-08T11:58:44.542Z,1.10
2017-10-08T12:01:12.154Z,2.55
2017-10-08T12:03:39.770Z,3.12
2017-10-08T12:06:07.447Z,1.10
2017-10-08T12:08:35.023Z,4.00
2017-10-08T12:11:02.699Z,6.35
2017-10-08T12:13:31.079Z,4.47
2017-10-08T12:15:59.474Z,1.17
2017-10-08T12:18:27.146Z,1.90
2017-10-08T12:20:54.765Z,3.00
2017-10-08T12:23:22.383Z,2.25
2017-10-08T12:25:50.043Z,2.80
2017-10-08T12:28:17.677Z,3.65
2017-10-08T12:30:45.295Z,1.50
2017-10-08T12:33:12.914Z,3.42
2017-10-08T12:35:40.559Z,1.55
2017-10-08T12:38:08.139Z,2.95
2017-10-08T12:40:35.760Z,4.03
2017-10-08T12:43:03.383Z,4.50
2017-10-08T12:45:31.033Z,2.30
2017-10-08T12:47:58.770Z,6.45
2017-10-08T12:50:26.342Z,3.53
2017-10-08T12:52:54.015Z,1.55
2017-10-08T12:55:21.631Z,2.47
2017-10-08T12:57:49.255Z,1.50
2017-10-08T13:00:16.870Z,2.20
2017-10-08T13:02:44.487Z,2.28
2017-10-08T13:05:12.125Z,2.67
2017-10-08T13:07:39.750Z,7.93
2017-10-08T13:10:08.124Z,2.30
2017-10-08T13:12:36.511Z,1.90
2017-10-08T13:15:04.122Z,3.30
2017-10-08T13:17:31.746Z,2.37
2017-10-08T13:19:59.359Z,7.12
2017-10-08T13:22:27.006Z,4.18
2017-10-08T13:24:54.650Z,4.93
2017-10-08T13:27:22.324Z,3.62
2017-10-08T13:29:49.893Z,4.65
2017-10-08T13:32:19.571Z,4.87
2017-10-08T13:34:47.255Z,2.33
2017-10-08T13:37:15.755Z,2.75
2017-10-08T13:39:43.377Z,1.90
2017-10-08T13:42:10.989Z,6.53
2017-10-08T13:44:38.666Z,7.03
2017-10-08T13:47:06.237Z,4.43
2017-10-08T13:49:34.014Z,6.78
2017-10-08T13:52:01.627Z,2.12
2017-10-08T13:54:29.214Z,3.03
2017-10-08T13:56:57.009Z,8.50
2017-10-08T13:59:24.938Z,7.00
2017-10-08T14:01:53.187Z,2.35
2017-10-08T14:04:20.811Z,5.95
2017-10-08T14:06:48.417Z,3.08
2017-10-08T14:09:16.040Z,3.37
2017-10-08T14:11:43.664Z,3.65
2017-10-08T14:14:11.279Z,4.87
2017-10-08T14:16:38.897Z,12.32
2017-10-08T14:19:06.510Z,7.10
2017-10-08T14:21:34.073Z,7.10
2017-10-08T14:24:01.683Z,12.30
2017-10-08T14:26:31.359Z,2.10
2017-10-08T14:28:58.973Z,2.35
2017-10-08T14:31:26.555Z,3.85
2017-10-08T14:33:54.176Z,5.07
2017-10-08T14:36:21.756Z,4.00
2017-10-08T14:38:49.371Z,4.50
2017-10-08T14:41:16.982Z,4.30
2017-10-08T14:43:44.590Z,5.85
2017-10-08T14:46:12.202Z,6.03
2017-10-08T14:48:39.813Z,6.47
2017-10-08T14:51:09.201Z,6.32
2017-10-08T14:53:36.807Z,8.93
2017-10-08T14:56:04.425Z,8.73
2017-10-08T14:58:32.065Z,17.27
2017-10-08T15:01:02.752Z,7.40
2017-10-08T15:03:34.569Z,4.57
2017-10-08T15:06:02.563Z,7.07
2017-10-08T15:08:30.460Z,13.35
2017-10-08T15:10:58.073Z,6.35
2017-10-08T15:13:25.698Z,14.35
2017-10-08T15:15:53.316Z,19.25
2017-10-08T15:18:21.698Z,5.12
2017-10-08T15:20:49.354Z,10.45
2017-10-08T15:23:21.546Z,8.63
2017-10-08T15:25:49.158Z,6.07
2017-10-08T15:28:18.355Z,5.28
2017-10-08T15:30:46.069Z,6.15
2017-10-08T15:33:14.410Z,7.72
2017-10-08T15:35:42.032Z,6.25
2017-10-08T15:38:09.648Z,8.10
2017-10-08T15:40:37.220Z,19.52
2017-10-08T15:43:05.606Z,13.98
2017-10-08T15:45:33.981Z,9.32
2017-10-08T15:48:01.703Z,10.30
2017-10-08T15:50:29.352Z,15.32
2017-10-08T15:52:56.968Z,6.10
2017-10-08T15:55:24.691Z,14.70
2017-10-08T15:57:52.299Z,3.60
2017-10-08T16:00:25.689Z,8.60
2017-10-08T16:02:54.076Z,6.80
2017-10-08T16:05:22.413Z,7.68
2017-10-08T16:07:50.026Z,12.18
2017-10-08T16:10:18.401Z,7.30
2017-10-08T16:12:46.315Z,7.07
2017-10-08T16:15:14.160Z,7.95
2017-10-08T16:17:41.751Z,5.62
2017-10-08T16:20:09.988Z,9.82
2017-10-08T16:22:37.602Z,9.38
2017-10-08T16:25:05.210Z,9.15
2017-10-08T16:27:32.834Z,10.50
2017-10-08T16:30:00.441Z,10.38
2017-10-08T16:32:28.168Z,8.45
2017-10-08T16:34:56.543Z,14.05
2017-10-08T16:37:24.312Z,9.77
2017-10-08T16:39:52.695Z,7.90
2017-10-08T16:42:21.075Z,7.15
2017-10-08T16:44:49.421Z,10.88
2017-10-08T16:47:17.030Z,19.02
2017-10-08T16:49:44.658Z,7.55
2017-10-08T16:52:12.270Z,8.68
2017-10-08T16:54:39.891Z,6.37
2017-10-08T16:57:07.545Z,7.62
2017-10-08T16:59:35.152Z,8.25
2017-10-08T17:02:02.764Z,11.65
2017-10-08T17:04:30.391Z,9.23
2017-10-08T17:06:57.993Z,20.35
2017-10-08T17:09:25.601Z,14.57
2017-10-08T17:11:53.244Z,8.23
2017-10-08T17:14:20.813Z,19.87
2017-10-08T17:16:48.645Z,6.65
2017-10-08T17:19:16.254Z,24.27
2017-10-08T17:21:43.875Z,18.33
2017-10-08T17:24:11.486Z,16.95
2017-10-08T17:26:39.101Z,25.73
2017-10-08T17:29:06.676Z,18.15
2017-10-08T17:31:34.300Z,13.70
2017-10-08T17:34:01.914Z,12.60
2017-10-08T17:36:29.519Z,23.55
2017-10-08T17:38:57.189Z,22.02
2017-10-08T17:41:24.798Z,15.35
2017-10-08T17:43:52.413Z,25.88
2017-10-08T17:46:20.030Z,27.40
2017-10-08T17:48:48.376Z,28.95
2017-10-08T17:51:16.737Z,34.35
2017-10-08T17:53:44.390Z,22.27
2017-10-08T17:56:12.015Z,23.05
2017-10-08T17:58:39.618Z,22.33
2017-10-08T18:01:07.231Z,21.30
2017-10-08T18:03:34.805Z,18.40
2017-10-08T18:06:02.546Z,20.42
2017-10-08T18:08:30.450Z,14.85
2017-10-08T18:10:58.102Z,12.55
2017-10-08T18:13:25.722Z,23.38
2017-10-08T18:15:53.343Z,20.70
2017-10-08T18:18:22.495Z,12.55
2017-10-08T18:20:50.121Z,16.27
2017-10-08T18:23:19.254Z,25.73
2017-10-08T18:25:46.927Z,20.85
2017-10-08T18:28:14.707Z,15.77
2017-10-08T18:30:42.318Z,13.30
2017-10-08T18:33:09.949Z,10.25
2017-10-08T18:35:37.593Z,15.55
2017-10-08T18:38:05.201Z,9.77
2017-10-08T18:40:32.830Z,8.82
2017-10-08T18:43:00.610Z,11.95
2017-10-08T18:45:28.223Z,7.37
2017-10-08T18:47:55.838Z,8.43
2017-10-08T18:50:24.211Z,6.22
2017-10-08T18:52:52.554Z,9.18
2017-10-08T18:55:20.325Z,10.80
2017-10-08T18:57:47.932Z,12.65
2017-10-08T19:00:16.354Z,13.18
2017-10-08T19:02:43.974Z,11.18
2017-10-08T19:05:12.357Z,17.05
2017-10-08T19:07:40.752Z,11.73
2017-10-08T19:10:08.371Z,9.77
2017-10-08T19:12:35.984Z,8.43
2017-10-08T19:15:03.626Z,10.13
2017-10-08T19:17:31.273Z,19.80
2017-10-08T19:19:58.882Z,12.00
2017-10-08T19:22:26.445Z,8.88
2017-10-08T19:24:54.137Z,11.63
2017-10-08T19:27:21.746Z,20.30
2017-10-08T19:29:49.351Z,7.70
2017-10-08T19:32:16.959Z,8.15
2017-10-08T19:34:45.301Z,12.15
2017-10-08T19:37:13.679Z,14.68
2017-10-08T19:39:41.294Z,12.73
2017-10-08T19:42:10.545Z,9.70
2017-10-08T19:44:38.167Z,10.60
2017-10-08T19:47:05.736Z,13.40
2017-10-08T19:49:35.505Z,13.13
2017-10-08T19:52:03.228Z,9.18
2017-10-08T19:54:30.803Z,12.35
2017-10-08T19:56:58.377Z,13.35
2017-10-08T19:59:25.943Z,11.57
2017-10-08T20:01:54.308Z,9.98
2017-10-08T20:04:22.686Z,14.20
2017-10-08T20:06:51.056Z,25.12
2017-10-08T20:09:18.650Z,21.85
2017-10-08T20:11:46.303Z,26.52
2017-10-08T20:14:13.906Z,24.40
2017-10-08T20:16:41.528Z,26.02
2017-10-08T20:19:09.170Z,22.15
2017-10-08T20:21:36.784Z,26.60
2017-10-08T20:24:04.442Z,17.67
2017-10-08T20:26:32.073Z,14.43
2017-10-08T20:28:59.635Z,7.87
2017-10-08T20:31:27.290Z,13.93
2017-10-08T20:33:54.895Z,8.82
2017-10-08T20:36:22.533Z,18.83
2017-10-08T20:38:50.143Z,7.20
2017-10-08T20:41:17.759Z,18.02
2017-10-08T20:43:45.319Z,9.13
2017-10-08T20:46:12.919Z,12.60
2017-10-08T20:48:40.522Z,11.65
2017-10-08T20:51:08.159Z,12.05
2017-10-08T20:53:35.758Z,9.98
2017-10-08T20:56:03.366Z,17.17
2017-10-08T20:58:30.965Z,8.70
2017-10-08T21:00:58.574Z,8.45
2017-10-08T21:03:26.183Z,12.25
2017-10-08T21:05:53.790Z,7.87
2017-10-08T21:08:21.393Z,11.82
2017-10-08T21:10:48.970Z,12.00
2017-10-08T21:13:16.581Z,8.50
2017-10-08T21:15:44.187Z,10.73
2017-10-08T21:18:12.557Z,7.85
2017-10-08T21:20:40.926Z,13.02
2017-10-08T21:23:09.337Z,11.80
2017-10-08T21:25:36.935Z,7.87
2017-10-08T21:28:04.555Z,10.75
2017-10-08T21:30:32.162Z,10.55
2017-10-08T21:32:59.758Z,9.00
2017-10-08T21:35:27.387Z,6.18
2017-10-08T21:37:55.051Z,11.10
2017-10-08T21:40:22.736Z,6.03
2017-10-08T21:42:51.112Z,8.30
2017-10-08T21:45:19.456Z,14.73
2017-10-08T21:47:47.122Z,7.97
2017-10-08T21:50:14.681Z,4.78
2017-10-08T21:52:42.291Z,8.27
2017-10-08T21:55:10.306Z,4.07
2017-10-08T21:57:37.938Z,8.85
2017-10-08T22:00:06.187Z,6.97
2017-10-08T22:02:33.833Z,7.37
2017-10-08T22:05:01.443Z,4.78
2017-10-08T22:07:29.047Z,4.72
2017-10-08T22:09:56.649Z,6.65
2017-10-08T22:12:24.296Z,7.78
2017-10-08T22:14:52.674Z,8.90
2017-10-08T22:17:21.002Z,5.12
2017-10-08T22:19:48.606Z,7.30
2017-10-08T22:22:16.206Z,7.10
2017-10-08T22:24:43.772Z,7.78
2017-10-08T22:27:11.373Z,9.52
2017-10-08T22:29:38.981Z,9.80
2017-10-08T22:32:06.585Z,8.50
2017-10-08T22:34:34.234Z,13.55
2017-10-08T22:37:01.815Z,5.22
2017-10-08T22:39:29.418Z,7.90
2017-10-08T22:41:57.058Z,9.00
2017-10-08T22:44:24.676Z,11.18
2017-10-08T22:46:52.275Z,6.50
2017-10-08T22:49:19.881Z,10.98
2017-10-08T22:51:47.489Z,9.38
2017-10-08T22:54:15.095Z,12.10
2017-10-08T22:56:42.702Z,6.20
2017-10-08T22:59:10.307Z,7.93
2017-10-08T23:01:37.913Z,13.57
2017-10-08T23:04:05.564Z,17.02
2017-10-08T23:06:33.173Z,10.80
2017-10-08T23:09:01.501Z,4.72
2017-10-08T23:11:29.102Z,10.00
2017-10-08T23:13:56.661Z,7.97
2017-10-08T23:16:24.258Z,8.43
2017-10-08T23:18:51.817Z,6.97
2017-10-08T23:21:19.418Z,9.15
2017-10-08T23:23:47.023Z,10.98
2017-10-08T23:26:15.393Z,5.03
2017-10-08T23:28:43.782Z,17.70
2017-10-08T23:31:11.386Z,6.65
2017-10-08T23:33:38.986Z,9.52
2017-10-08T23:36:07.355Z,7.68
2017-10-08T23:38:34.886Z,17.55
2017-10-08T23:41:02.483Z,7.15
2017-10-08T23:43:30.817Z,8.32
2017-10-08T23:45:58.427Z,11.82
2017-10-08T23:48:26.877Z,8.32
2017-10-08T23:50:54.498Z,12.48
2017-10-08T23:53:22.103Z,13.68
2017-10-08T23:55:49.705Z,18.73
2017-10-08T23:58:17.306Z,16.58
